createdAt,value
2023-05-13T00:03:01.920Z,90.32
2023-05-13T00:08:07.201Z,90.42
2023-05-13T00:13:08.969Z,90.04
2023-05-13T00:18:11.135Z,90.42
2023-05-13T00:23:12.820Z,90.35
2023-05-13T00:28:15.135Z,90.30
2023-05-13T00:33:17.302Z,90.47
2023-05-13T00:38:19.021Z,90.36
2023-05-13T00:43:21.505Z,90.47
2023-05-13T00:48:23.676Z,90.38
2023-05-13T00:53:25.569Z,90.03
2023-05-13T00:58:27.522Z,89.92
2023-05-13T01:03:39.337Z,90.28
2023-05-13T01:08:40.998Z,90.17
2023-05-13T01:13:47.960Z,90.19
2023-05-13T01:18:56.559Z,90.03
2023-05-13T01:23:59.451Z,89.86
2023-05-13T01:29:01.274Z,89.73
2023-05-13T01:34:03.797Z,89.54
2023-05-13T01:39:06.245Z,89.72
2023-05-13T01:44:08.720Z,89.45
2023-05-13T01:49:10.701Z,89.42
2023-05-13T01:54:12.509Z,89.32
2023-05-13T01:59:19.962Z,89.30
2023-05-13T02:04:22.123Z,88.82
2023-05-13T02:09:24.372Z,88.76
2023-05-13T02:14:26.383Z,88.88
2023-05-13T02:19:28.092Z,89.10
2023-05-13T02:24:31.083Z,89.06
2023-05-13T02:29:34.091Z,88.93
2023-05-13T02:34:35.968Z,89.01
2023-05-13T02:39:38.179Z,89.26
2023-05-13T02:44:40.471Z,89.02
2023-05-13T02:49:43.676Z,88.84
2023-05-13T02:54:47.937Z,89.13
2023-05-13T02:59:50.244Z,89.23
2023-05-13T03:04:52.201Z,89.42
2023-05-13T03:09:54.098Z,89.71
2023-05-13T03:14:56.461Z,90.02
2023-05-13T03:19:58.269Z,90.25
2023-05-13T03:25:00.129Z,90.07
2023-05-13T03:30:08.599Z,90.67
2023-05-13T03:35:17.772Z,90.41
2023-05-13T03:40:19.757Z,90.71
2023-05-13T03:45:22.116Z,91.10
2023-05-13T03:50:26.407Z,91.40
2023-05-13T03:55:28.333Z,92.26
2023-05-13T04:00:30.363Z,92.67
2023-05-13T04:05:32.693Z,93.26
2023-05-13T04:10:34.782Z,93.87
2023-05-13T04:15:36.848Z,94.31
2023-05-13T04:20:41.049Z,94.69
2023-05-13T04:25:43.268Z,95.27
2023-05-13T04:30:45.277Z,95.62
2023-05-13T04:35:47.716Z,95.97
2023-05-13T04:40:49.624Z,95.97
2023-05-13T04:45:57.969Z,96.21
2023-05-13T04:50:59.988Z,96.32
2023-05-13T04:56:02.417Z,96.62
2023-05-13T05:01:05.276Z,97.21
2023-05-13T05:06:07.404Z,97.56
2023-05-13T05:11:10.695Z,97.66
2023-05-13T05:16:12.752Z,97.87
2023-05-13T05:21:15.008Z,98.00
2023-05-13T05:26:17.417Z,98.18
2023-05-13T05:31:19.383Z,98.02
2023-05-13T05:36:21.764Z,97.50
2023-05-13T05:41:23.616Z,97.57
2023-05-13T05:46:26.234Z,97.39
2023-05-13T05:51:28.722Z,97.64
2023-05-13T05:56:30.564Z,97.58
2023-05-13T06:01:36.831Z,97.99
2023-05-13T06:06:40.456Z,98.34
2023-05-13T06:11:42.764Z,98.48
2023-05-13T06:16:45.073Z,98.36
2023-05-13T06:21:46.879Z,98.14
2023-05-13T06:26:49.000Z,97.82
2023-05-13T06:31:50.854Z,97.52
2023-05-13T06:36:52.651Z,97.19
2023-05-13T06:41:55.625Z,96.14
2023-05-13T06:47:03.018Z,95.45
2023-05-13T06:52:05.540Z,95.90
2023-05-13T06:57:07.457Z,95.12
2023-05-13T07:02:09.954Z,94.99
2023-05-13T07:07:11.824Z,95.06
2023-05-13T07:12:14.460Z,94.72
2023-05-13T07:17:17.174Z,94.39
2023-05-13T07:22:19.089Z,94.18
2023-05-13T07:27:21.798Z,93.59
2023-05-13T07:32:23.819Z,92.92
2023-05-13T07:37:25.550Z,92.71
2023-05-13T07:42:29.846Z,92.77
2023-05-13T07:47:32.041Z,92.58
2023-05-13T07:52:36.951Z,93.38
2023-05-13T07:57:38.679Z,92.03
2023-05-13T08:02:42.780Z,91.23
2023-05-13T08:07:46.240Z,90.87
2023-05-13T08:13:02.782Z,90.31
2023-05-13T08:18:09.043Z,89.82
2023-05-13T08:23:13.623Z,89.79
2023-05-13T08:28:17.885Z,89.08
2023-05-13T08:33:25.481Z,89.80
2023-05-13T08:38:27.267Z,89.87
2023-05-13T08:43:30.547Z,88.55
2023-05-13T08:48:33.793Z,89.51
2023-05-13T08:53:36.295Z,89.87
2023-05-13T08:58:39.209Z,87.38
2023-05-13T09:03:57.852Z,87.45
2023-05-13T09:08:59.729Z,87.60
2023-05-13T09:14:03.689Z,85.46
2023-05-13T09:19:07.581Z,85.77
2023-05-13T09:24:18.407Z,86.06
2023-05-13T09:29:30.350Z,86.68
2023-05-13T09:34:34.263Z,86.47
2023-05-13T09:39:41.301Z,87.24
2023-05-13T09:44:46.675Z,87.14
2023-05-13T09:49:56.157Z,86.79
2023-05-13T09:54:59.508Z,85.51
2023-05-13T10:00:05.095Z,86.02
2023-05-13T10:05:12.679Z,85.64
2023-05-13T10:10:14.964Z,85.22
2023-05-13T10:15:17.472Z,85.76
2023-05-13T10:20:19.659Z,85.88
2023-05-13T10:25:22.348Z,85.02
2023-05-13T10:30:26.587Z,83.15
2023-05-13T10:35:37.121Z,83.15
2023-05-13T10:41:17.416Z,83.12
2023-05-13T10:46:19.415Z,81.84
2023-05-13T10:51:24.563Z,82.46
2023-05-13T10:56:28.837Z,80.99
2023-05-13T11:01:43.186Z,82.55
2023-05-13T11:06:46.448Z,82.38
2023-05-13T11:11:53.072Z,82.07
2023-05-13T11:17:01.116Z,77.67
2023-05-13T11:22:12.800Z,79.38
2023-05-13T11:27:18.509Z,77.08
2023-05-13T11:32:54.264Z,74.46
2023-05-13T11:37:59.834Z,76.14
2023-05-13T11:43:02.411Z,77.57
2023-05-13T11:48:22.082Z,76.28
2023-05-13T11:53:23.864Z,76.94
2023-05-13T11:58:25.829Z,76.57
2023-05-13T12:03:28.320Z,76.52
2023-05-13T12:08:30.466Z,77.21
2023-05-13T12:13:32.285Z,75.26
2023-05-13T12:18:34.524Z,75.48
2023-05-13T12:23:40.813Z,77.12
2023-05-13T12:28:42.746Z,76.03
2023-05-13T12:33:47.275Z,76.70
2023-05-13T12:39:00.710Z,76.54
2023-05-13T12:44:10.988Z,76.70
2023-05-13T12:49:15.048Z,76.69
2023-05-13T12:54:17.262Z,76.56
2023-05-13T12:59:19.331Z,75.89
2023-05-13T13:04:21.105Z,75.97
2023-05-13T13:09:22.995Z,75.59
2023-05-13T13:14:26.107Z,76.08
2023-05-13T13:19:27.860Z,77.02
2023-05-13T13:24:29.997Z,77.14
2023-05-13T13:29:32.336Z,76.41
2023-05-13T13:34:34.096Z,76.97
2023-05-13T13:39:35.860Z,76.82
2023-05-13T13:44:39.444Z,75.75
2023-05-13T13:49:41.288Z,76.17
2023-05-13T13:54:43.087Z,76.08
2023-05-13T13:59:44.786Z,76.36
2023-05-13T14:04:46.528Z,76.43
2023-05-13T14:09:50.021Z,76.68
2023-05-13T14:14:51.839Z,75.81
2023-05-13T14:19:55.398Z,75.99
2023-05-13T14:24:58.920Z,77.04
2023-05-13T14:30:00.971Z,77.24
2023-05-13T14:35:02.680Z,78.57
2023-05-13T14:40:04.886Z,78.39
2023-05-13T14:45:07.327Z,78.67
2023-05-13T14:50:09.177Z,78.00
2023-05-13T14:55:11.299Z,77.66
2023-05-13T15:00:14.161Z,78.59
2023-05-13T15:05:16.043Z,78.60
2023-05-13T15:10:17.864Z,76.23
2023-05-13T15:15:20.063Z,76.67
2023-05-13T15:20:24.367Z,77.64
2023-05-13T15:25:26.320Z,77.31
2023-05-13T15:30:28.826Z,76.74
2023-05-13T15:35:30.586Z,76.40
2023-05-13T15:40:34.388Z,76.99
2023-05-13T15:45:36.417Z,77.62
2023-05-13T15:50:38.241Z,77.15
2023-05-13T15:55:40.196Z,78.27
2023-05-13T16:00:42.115Z,77.57
2023-05-13T16:05:44.074Z,77.25
2023-05-13T16:10:45.820Z,77.44
2023-05-13T16:15:47.568Z,76.73
2023-05-13T16:20:51.419Z,77.30
2023-05-13T16:25:53.639Z,76.94
2023-05-13T16:30:57.306Z,76.21
2023-05-13T16:36:00.276Z,77.65
2023-05-13T16:41:01.936Z,76.59
2023-05-13T16:46:04.086Z,73.65
2023-05-13T16:51:05.785Z,75.70
2023-05-13T16:56:07.608Z,75.42
2023-05-13T17:01:09.525Z,75.97
2023-05-13T17:06:13.112Z,76.35
2023-05-13T17:11:17.964Z,75.61
2023-05-13T17:16:19.694Z,76.47
2023-05-13T17:21:22.385Z,76.65
2023-05-13T17:26:24.377Z,76.57
2023-05-13T17:31:27.398Z,76.81
2023-05-13T17:36:29.312Z,77.05
2023-05-13T17:41:31.329Z,77.56
2023-05-13T17:46:33.053Z,77.75
2023-05-13T17:51:34.741Z,77.72
2023-05-13T17:56:36.403Z,78.03
2023-05-13T18:01:38.475Z,77.55
2023-05-13T18:06:40.227Z,77.62
2023-05-13T18:11:41.923Z,77.71
2023-05-13T18:16:43.944Z,77.65
2023-05-13T18:21:46.637Z,77.75
2023-05-13T18:26:48.435Z,78.02
2023-05-13T18:31:50.160Z,78.41
2023-05-13T18:36:52.493Z,78.60
2023-05-13T18:41:54.277Z,78.72
2023-05-13T18:46:56.014Z,78.40
2023-05-13T18:51:57.927Z,77.86
2023-05-13T18:57:00.450Z,78.45
2023-05-13T19:02:02.330Z,78.17
2023-05-13T19:07:04.423Z,78.26
2023-05-13T19:12:07.520Z,78.63
2023-05-13T19:17:09.308Z,79.13
2023-05-13T19:22:11.091Z,79.52
2023-05-13T19:27:12.897Z,80.32
2023-05-13T19:32:15.205Z,81.31
2023-05-13T19:37:17.036Z,81.63
2023-05-13T19:42:19.002Z,81.76
2023-05-13T19:47:21.148Z,81.94
2023-05-13T19:52:22.824Z,83.08
2023-05-13T19:57:24.499Z,85.66
2023-05-13T20:02:26.787Z,87.90
2023-05-13T20:07:29.172Z,89.29
2023-05-13T20:12:31.575Z,90.01
2023-05-13T20:17:33.407Z,90.61
2023-05-13T20:22:35.266Z,91.31
2023-05-13T20:27:37.166Z,92.16
2023-05-13T20:32:39.124Z,94.06
2023-05-13T20:37:40.869Z,95.45
2023-05-13T20:42:42.679Z,97.53
2023-05-13T20:47:44.842Z,97.61
2023-05-13T20:52:47.007Z,97.86
2023-05-13T20:57:50.435Z,97.99
2023-05-13T21:02:53.529Z,98.14
2023-05-13T21:07:55.538Z,98.02
2023-05-13T21:12:57.260Z,98.27
2023-05-13T21:17:59.539Z,98.42
2023-05-13T21:23:01.408Z,98.16
2023-05-13T21:28:03.808Z,98.23
2023-05-13T21:33:05.655Z,98.11
2023-05-13T21:38:12.173Z,97.39
2023-05-13T21:43:14.488Z,97.17
2023-05-13T21:48:16.602Z,96.58
2023-05-13T21:53:18.406Z,96.38
2023-05-13T21:58:21.916Z,96.40
2023-05-13T22:03:26.341Z,96.44
2023-05-13T22:08:29.420Z,95.81
2023-05-13T22:13:31.630Z,96.14
2023-05-13T22:18:33.649Z,96.56
2023-05-13T22:23:35.772Z,96.11
2023-05-13T22:28:37.479Z,96.03
2023-05-13T22:33:39.345Z,96.45
2023-05-13T22:38:42.082Z,96.83
2023-05-13T22:43:43.982Z,96.57
2023-05-13T22:48:46.074Z,96.15
2023-05-13T22:53:48.063Z,96.20
2023-05-13T22:58:49.801Z,96.14
2023-05-13T23:03:52.239Z,96.01
2023-05-13T23:08:54.032Z,95.82
2023-05-13T23:13:55.789Z,95.28
2023-05-13T23:18:58.032Z,95.13
2023-05-13T23:23:59.961Z,94.99
2023-05-13T23:29:02.279Z,94.58
2023-05-13T23:34:04.466Z,93.88
2023-05-13T23:39:06.299Z,93.91
2023-05-13T23:44:08.016Z,93.85
2023-05-13T23:49:09.862Z,93.95
2023-05-13T23:54:11.764Z,94.31
2023-05-13T23:59:13.485Z,94.58
